createdAt,value
2023-04-22T00:02:06.929Z,84.53
2023-04-22T00:04:35.066Z,85.72
2023-04-22T00:07:02.737Z,87.10
2023-04-22T00:09:30.081Z,88.34
2023-04-22T00:11:59.126Z,86.01
2023-04-22T00:14:26.458Z,85.71
2023-04-22T00:16:53.840Z,83.65
2023-04-22T00:19:22.183Z,84.41
2023-04-22T00:21:49.727Z,85.05
2023-04-22T00:24:17.158Z,84.76
2023-04-22T00:26:44.796Z,86.25
2023-04-22T00:29:12.114Z,86.26
2023-04-22T00:31:39.424Z,86.08
2023-04-22T00:34:07.498Z,86.54
2023-04-22T00:36:34.791Z,87.15
2023-04-22T00:39:02.169Z,86.25
2023-04-22T00:41:31.339Z,85.75
2023-04-22T00:44:00.786Z,85.09
2023-04-22T00:46:28.591Z,84.24
2023-04-22T00:48:57.628Z,84.44
2023-04-22T00:51:24.981Z,84.74
2023-04-22T00:53:52.682Z,85.16
2023-04-22T00:56:22.041Z,85.38
2023-04-22T00:58:49.457Z,84.96
2023-04-22T01:01:17.673Z,84.59
2023-04-22T01:03:48.455Z,84.01
2023-04-22T01:06:18.959Z,84.92
2023-04-22T01:08:46.740Z,87.13
2023-04-22T01:11:15.028Z,86.16
2023-04-22T01:13:42.692Z,85.39
2023-04-22T01:16:11.109Z,84.37
2023-04-22T01:18:38.631Z,84.74
2023-04-22T01:21:07.329Z,84.80
2023-04-22T01:23:35.171Z,83.88
2023-04-22T01:26:02.841Z,85.04
2023-04-22T01:28:31.665Z,84.02
2023-04-22T01:30:59.853Z,84.50
2023-04-22T01:33:27.396Z,84.89
2023-04-22T01:35:54.759Z,85.09
2023-04-22T01:38:22.623Z,85.74
2023-04-22T01:40:50.147Z,86.42
2023-04-22T01:43:17.632Z,87.20
2023-04-22T01:45:45.514Z,86.52
2023-04-22T01:48:13.032Z,84.38
2023-04-22T01:50:40.444Z,85.91
2023-04-22T01:53:08.798Z,86.12
2023-04-22T01:55:37.417Z,85.16
2023-04-22T01:58:05.542Z,83.88
2023-04-22T02:00:33.165Z,83.73
2023-04-22T02:03:01.444Z,83.35
2023-04-22T02:05:28.995Z,83.25
2023-04-22T02:07:56.393Z,84.42
2023-04-22T02:10:24.355Z,85.50
2023-04-22T02:12:51.598Z,84.90
2023-04-22T02:15:18.966Z,83.90
2023-04-22T02:17:46.660Z,83.90
2023-04-22T02:20:14.265Z,84.19
2023-04-22T02:22:43.889Z,83.97
2023-04-22T02:25:14.397Z,83.66
2023-04-22T02:27:44.300Z,83.64
2023-04-22T02:30:12.917Z,82.74
2023-04-22T02:32:40.626Z,82.25
2023-04-22T02:35:08.298Z,83.43
2023-04-22T02:37:35.978Z,84.19
2023-04-22T02:40:04.121Z,86.36
2023-04-22T02:42:31.733Z,85.12
2023-04-22T02:44:59.503Z,84.01
2023-04-22T02:47:26.842Z,84.54
2023-04-22T02:49:54.160Z,84.89
2023-04-22T02:52:21.998Z,85.54
2023-04-22T02:54:49.325Z,86.03
2023-04-22T02:57:16.582Z,87.19
2023-04-22T02:59:44.193Z,87.24
2023-04-22T03:02:13.026Z,87.56
2023-04-22T03:04:41.105Z,87.02
2023-04-22T03:07:09.348Z,86.60
2023-04-22T03:09:36.853Z,86.75
2023-04-22T03:12:04.562Z,85.04
2023-04-22T03:14:32.293Z,86.00
2023-04-22T03:17:00.029Z,86.12
2023-04-22T03:19:27.606Z,87.04
2023-04-22T03:21:56.676Z,88.86
2023-04-22T03:24:24.651Z,88.20
2023-04-22T03:26:52.498Z,88.22
2023-04-22T03:29:20.292Z,88.58
2023-04-22T03:31:48.819Z,88.29
2023-04-22T03:34:17.033Z,87.65
2023-04-22T03:36:45.745Z,87.43
2023-04-22T03:39:13.302Z,87.93
2023-04-22T03:41:41.387Z,86.93
2023-04-22T03:44:09.871Z,87.26
2023-04-22T03:46:37.706Z,87.28
2023-04-22T03:49:06.874Z,87.46
2023-04-22T03:51:34.783Z,87.24
2023-04-22T03:54:03.630Z,87.81
2023-04-22T03:56:31.399Z,87.61
2023-04-22T03:58:59.165Z,86.95
2023-04-22T04:01:26.742Z,87.35
2023-04-22T04:04:08.289Z,86.21
2023-04-22T04:06:37.009Z,86.52
2023-04-22T04:09:05.822Z,86.69
2023-04-22T04:11:33.387Z,86.90
2023-04-22T04:14:01.182Z,87.35
2023-04-22T04:16:29.624Z,86.99
2023-04-22T04:19:00.915Z,87.12
2023-04-22T04:21:29.988Z,88.32
2023-04-22T04:23:57.584Z,88.92
2023-04-22T04:26:28.277Z,88.07
2023-04-22T04:29:01.241Z,90.53
2023-04-22T04:31:37.340Z,91.82
2023-04-22T04:34:07.884Z,90.80
2023-04-22T04:36:37.007Z,90.17
2023-04-22T04:39:12.380Z,90.63
2023-04-22T04:41:42.852Z,90.41
2023-04-22T04:44:13.921Z,89.74
2023-04-22T04:46:42.268Z,91.86
2023-04-22T04:49:12.872Z,92.21
2023-04-22T04:51:48.705Z,92.07
2023-04-22T04:54:20.278Z,91.27
2023-04-22T04:56:51.808Z,93.45
2023-04-22T04:59:19.921Z,94.38
2023-04-22T05:01:49.500Z,94.08
2023-04-22T05:04:17.436Z,93.03
2023-04-22T05:06:45.559Z,92.32
2023-04-22T05:09:14.042Z,92.00
2023-04-22T05:11:44.884Z,92.91
2023-04-22T05:14:14.101Z,92.73
2023-04-22T05:16:55.622Z,92.58
2023-04-22T05:19:24.265Z,93.42
2023-04-22T05:21:52.256Z,94.15
2023-04-22T05:24:19.848Z,95.40
2023-04-22T05:26:48.152Z,94.52
2023-04-22T05:29:16.139Z,93.58
2023-04-22T05:31:43.987Z,93.02
2023-04-22T05:34:12.596Z,92.74
2023-04-22T05:36:40.351Z,93.65
2023-04-22T05:39:07.838Z,95.85
2023-04-22T05:41:35.834Z,96.53
2023-04-22T05:44:03.864Z,94.77
2023-04-22T05:46:31.528Z,97.56
2023-04-22T05:49:02.764Z,97.58
2023-04-22T05:51:31.521Z,97.04
2023-04-22T05:53:59.619Z,99.16
2023-04-22T05:56:27.314Z,97.02
2023-04-22T05:58:54.676Z,98.72
2023-04-22T06:01:22.975Z,96.63
2023-04-22T06:03:52.557Z,94.53
2023-04-22T06:06:20.568Z,95.29
2023-04-22T06:08:48.076Z,95.87
2023-04-22T06:11:15.891Z,97.12
2023-04-22T06:13:43.302Z,96.92
2023-04-22T06:16:11.430Z,96.73
2023-04-22T06:18:39.676Z,95.64
2023-04-22T06:21:08.549Z,93.73
2023-04-22T06:23:37.479Z,93.83
2023-04-22T06:26:06.360Z,95.13
2023-04-22T06:28:33.990Z,94.81
2023-04-22T06:31:02.743Z,92.89
2023-04-22T06:33:30.596Z,91.92
2023-04-22T06:35:57.955Z,92.16
2023-04-22T06:38:25.673Z,92.86
2023-04-22T06:40:57.927Z,92.78
2023-04-22T06:43:26.337Z,91.90
2023-04-22T06:45:58.285Z,89.88
2023-04-22T06:48:28.246Z,87.65
2023-04-22T06:50:59.352Z,87.31
2023-04-22T06:53:27.032Z,85.73
2023-04-22T06:55:54.939Z,84.72
2023-04-22T06:58:23.057Z,84.68
2023-04-22T07:00:50.505Z,86.58
2023-04-22T07:03:18.012Z,84.98
2023-04-22T07:05:48.900Z,83.63
2023-04-22T07:08:16.512Z,83.99
2023-04-22T07:10:43.910Z,84.42
2023-04-22T07:13:17.427Z,82.20
2023-04-22T07:15:46.388Z,83.04
2023-04-22T07:18:14.831Z,82.34
2023-04-22T07:20:42.102Z,77.56
2023-04-22T07:23:12.950Z,76.50
2023-04-22T07:25:41.477Z,79.11
2023-04-22T07:28:12.548Z,76.19
2023-04-22T07:30:42.225Z,72.91
2023-04-22T07:33:10.087Z,72.44
2023-04-22T07:35:37.467Z,72.93
2023-04-22T07:38:05.417Z,72.26
2023-04-22T07:40:33.827Z,69.37
2023-04-22T07:43:01.556Z,66.96
2023-04-22T07:45:29.708Z,66.70
2023-04-22T07:47:58.060Z,67.72
2023-04-22T07:50:26.404Z,65.73
2023-04-22T07:52:54.504Z,67.14
2023-04-22T07:55:23.177Z,61.76
2023-04-22T07:57:50.949Z,60.57
2023-04-22T08:00:18.539Z,61.64
2023-04-22T08:02:47.813Z,60.76
2023-04-22T08:05:15.755Z,60.08
2023-04-22T08:07:43.610Z,59.00
2023-04-22T08:10:11.649Z,60.32
2023-04-22T08:12:39.447Z,60.49
2023-04-22T08:15:07.582Z,57.65
2023-04-22T08:17:35.598Z,59.26
2023-04-22T08:20:06.580Z,56.15
2023-04-22T08:22:36.373Z,56.89
2023-04-22T08:25:04.396Z,53.53
2023-04-22T08:27:31.806Z,55.36
2023-04-22T08:29:59.523Z,54.26
2023-04-22T08:32:27.027Z,54.45
2023-04-22T08:35:03.540Z,50.44
2023-04-22T08:37:32.486Z,50.00
2023-04-22T08:39:59.901Z,49.47
2023-04-22T08:42:28.096Z,50.42
2023-04-22T08:44:57.421Z,48.74
2023-04-22T08:47:28.934Z,49.57
2023-04-22T08:49:59.255Z,52.36
2023-04-22T08:52:26.846Z,53.26
2023-04-22T08:54:54.187Z,53.80
2023-04-22T08:57:21.963Z,53.17
2023-04-22T08:59:50.543Z,49.83
2023-04-22T09:02:21.470Z,48.04
2023-04-22T09:04:51.829Z,48.25
2023-04-22T09:07:30.192Z,47.67
2023-04-22T09:09:58.596Z,48.48
2023-04-22T09:12:26.458Z,45.34
2023-04-22T09:14:54.816Z,43.48
2023-04-22T09:17:38.575Z,45.82
2023-04-22T09:20:07.920Z,46.96
2023-04-22T09:22:42.157Z,43.87
2023-04-22T09:25:36.237Z,44.95
2023-04-22T09:28:04.096Z,42.46
2023-04-22T09:30:37.980Z,43.93
2023-04-22T09:33:07.791Z,41.66
2023-04-22T09:35:41.171Z,41.65
2023-04-22T09:38:11.636Z,45.55
2023-04-22T09:40:44.046Z,44.70
2023-04-22T09:43:12.456Z,43.95
2023-04-22T09:45:43.091Z,42.67
2023-04-22T09:48:18.596Z,42.54
2023-04-22T09:50:53.633Z,43.61
2023-04-22T09:53:30.123Z,42.00
2023-04-22T09:56:04.725Z,42.65
2023-04-22T09:58:32.202Z,39.48
2023-04-22T10:01:01.233Z,41.64
2023-04-22T10:03:29.448Z,43.07
2023-04-22T10:05:58.079Z,44.63
2023-04-22T10:08:25.530Z,43.95
2023-04-22T10:10:54.271Z,43.88
2023-04-22T10:13:22.676Z,43.14
2023-04-22T10:15:53.202Z,45.30
2023-04-22T10:18:24.745Z,44.91
2023-04-22T10:20:54.504Z,46.88
2023-04-22T10:23:24.921Z,47.86
2023-04-22T10:25:57.485Z,49.32
2023-04-22T10:28:29.014Z,50.12
2023-04-22T10:30:57.304Z,50.22
2023-04-22T10:33:27.693Z,51.57
2023-04-22T10:36:14.440Z,51.07
2023-04-22T10:39:02.056Z,52.22
2023-04-22T10:41:32.683Z,52.99
2023-04-22T10:44:09.422Z,52.83
2023-04-22T10:46:56.238Z,53.88
2023-04-22T10:49:26.995Z,53.59
2023-04-22T10:52:04.358Z,53.85
2023-04-22T10:54:36.796Z,54.89
2023-04-22T10:57:06.184Z,53.32
2023-04-22T10:59:50.353Z,53.00
2023-04-22T11:02:19.745Z,53.69
2023-04-22T11:04:48.042Z,52.39
2023-04-22T11:07:27.392Z,52.98
2023-04-22T11:10:07.853Z,51.83
2023-04-22T11:12:38.762Z,52.67
2023-04-22T11:15:11.130Z,50.70
2023-04-22T11:17:40.457Z,49.64
2023-04-22T11:20:08.949Z,53.44
2023-04-22T11:22:45.071Z,50.55
2023-04-22T11:25:12.855Z,48.55
2023-04-22T11:27:43.686Z,49.07
2023-04-22T11:30:13.057Z,46.48
2023-04-22T11:32:48.888Z,46.26
2023-04-22T11:35:19.849Z,47.15
2023-04-22T11:37:49.048Z,48.20
2023-04-22T11:40:28.943Z,46.68
2023-04-22T11:43:00.125Z,46.34
2023-04-22T11:45:29.026Z,48.67
2023-04-22T11:47:56.954Z,49.98
2023-04-22T11:50:27.053Z,49.77
2023-04-22T11:52:56.936Z,51.50
2023-04-22T11:55:32.451Z,50.79
2023-04-22T11:58:10.818Z,50.19
2023-04-22T12:00:40.904Z,50.41
2023-04-22T12:03:21.073Z,50.10
2023-04-22T12:06:08.718Z,50.58
2023-04-22T12:08:42.755Z,49.05
2023-04-22T12:11:12.488Z,50.04
2023-04-22T12:13:46.260Z,49.18
2023-04-22T12:16:19.275Z,48.00
2023-04-22T12:18:52.998Z,47.26
2023-04-22T12:21:22.777Z,45.91
2023-04-22T12:23:53.976Z,46.10
2023-04-22T12:26:26.570Z,44.45
2023-04-22T12:28:57.034Z,43.62
2023-04-22T12:31:25.442Z,42.50
2023-04-22T12:33:53.921Z,39.98
2023-04-22T12:36:22.242Z,39.39
2023-04-22T12:38:51.535Z,39.80
2023-04-22T12:41:19.145Z,39.85
2023-04-22T12:43:47.904Z,39.47
2023-04-22T12:46:15.730Z,39.82
2023-04-22T12:48:43.818Z,38.40
2023-04-22T12:51:11.533Z,38.17
2023-04-22T12:53:40.753Z,39.43
2023-04-22T12:56:08.579Z,40.03
2023-04-22T12:58:36.404Z,39.49
2023-04-22T13:01:03.779Z,39.26
2023-04-22T13:03:31.393Z,36.76
2023-04-22T13:05:59.282Z,38.73
2023-04-22T13:08:26.929Z,39.01
2023-04-22T13:10:54.348Z,39.14
2023-04-22T13:13:22.086Z,39.36
2023-04-22T13:15:54.356Z,38.46
2023-04-22T13:18:23.676Z,38.99
2023-04-22T13:20:51.702Z,40.12
2023-04-22T13:23:21.966Z,39.75
2023-04-22T13:25:50.805Z,40.86
2023-04-22T13:28:18.247Z,41.49
2023-04-22T13:30:46.079Z,43.35
2023-04-22T13:33:13.754Z,43.72
2023-04-22T13:35:41.201Z,43.28
2023-04-22T13:38:08.513Z,43.47
2023-04-22T13:40:36.481Z,42.97
2023-04-22T13:43:04.520Z,43.43
2023-04-22T13:45:31.972Z,45.79
2023-04-22T13:47:59.795Z,44.93
2023-04-22T13:50:27.366Z,46.41
2023-04-22T13:52:55.098Z,45.08
2023-04-22T13:55:22.804Z,45.02
2023-04-22T13:57:52.117Z,45.41
2023-04-22T14:00:21.057Z,44.56
2023-04-22T14:02:49.164Z,44.74
2023-04-22T14:05:17.237Z,44.27
2023-04-22T14:07:44.705Z,45.07
2023-04-22T14:10:14.078Z,43.50
2023-04-22T14:12:41.951Z,44.67
2023-04-22T14:15:11.397Z,44.25
2023-04-22T14:17:40.325Z,44.91
2023-04-22T14:20:08.965Z,44.43
2023-04-22T14:22:36.300Z,44.17
2023-04-22T14:25:04.432Z,43.01
2023-04-22T14:27:33.129Z,43.15
2023-04-22T14:30:04.392Z,42.07
2023-04-22T14:32:32.728Z,42.49
2023-04-22T14:35:00.295Z,42.77
2023-04-22T14:37:27.869Z,43.69
2023-04-22T14:39:55.737Z,41.59
2023-04-22T14:42:24.356Z,40.38
2023-04-22T14:44:51.790Z,40.67
2023-04-22T14:47:19.655Z,40.11
2023-04-22T14:49:47.055Z,40.97
2023-04-22T14:52:14.872Z,40.57
2023-04-22T14:54:42.631Z,40.49
2023-04-22T14:57:10.030Z,41.28
2023-04-22T14:59:37.466Z,41.80
2023-04-22T15:02:05.793Z,41.06
2023-04-22T15:04:33.559Z,42.01
2023-04-22T15:07:01.943Z,40.24
2023-04-22T15:09:29.832Z,40.31
2023-04-22T15:11:59.882Z,39.89
2023-04-22T15:14:27.342Z,40.47
2023-04-22T15:16:55.151Z,40.61
2023-04-22T15:19:22.530Z,39.85
2023-04-22T15:21:49.904Z,38.63
2023-04-22T15:24:17.772Z,37.87
2023-04-22T15:26:45.130Z,41.57
2023-04-22T15:29:13.140Z,47.27
2023-04-22T15:31:41.179Z,50.93
2023-04-22T15:34:08.821Z,50.38
2023-04-22T15:36:36.621Z,51.48
2023-04-22T15:39:05.686Z,52.33
2023-04-22T15:41:36.329Z,52.96
2023-04-22T15:44:06.447Z,53.05
2023-04-22T15:46:35.503Z,54.71
2023-04-22T15:49:03.734Z,54.96
2023-04-22T15:51:31.597Z,55.33
2023-04-22T15:53:58.962Z,57.85
2023-04-22T15:56:26.369Z,58.60
2023-04-22T15:58:54.152Z,58.17
2023-04-22T16:01:21.646Z,57.46
2023-04-22T16:03:49.674Z,58.50
2023-04-22T16:06:18.820Z,59.23
2023-04-22T16:08:46.361Z,61.58
2023-04-22T16:11:15.422Z,63.69
2023-04-22T16:13:43.074Z,64.48
2023-04-22T16:16:11.324Z,65.41
2023-04-22T16:18:41.407Z,65.63
2023-04-22T16:21:10.758Z,66.24
2023-04-22T16:23:38.162Z,68.07
2023-04-22T16:26:06.571Z,68.66
2023-04-22T16:28:33.986Z,68.89
2023-04-22T16:31:01.521Z,70.27
2023-04-22T16:33:29.296Z,70.65
2023-04-22T16:35:57.463Z,70.72
2023-04-22T16:38:25.204Z,71.34
2023-04-22T16:40:54.494Z,71.68
2023-04-22T16:43:22.215Z,72.02
2023-04-22T16:45:49.637Z,72.76
2023-04-22T16:48:17.403Z,72.86
2023-04-22T16:50:44.738Z,73.31
2023-04-22T16:53:12.117Z,73.94
2023-04-22T16:55:39.856Z,72.80
2023-04-22T16:58:07.286Z,73.33
2023-04-22T17:00:34.784Z,72.57
2023-04-22T17:03:02.791Z,72.28
2023-04-22T17:05:30.577Z,72.52
2023-04-22T17:07:58.007Z,72.57
2023-04-22T17:10:25.764Z,71.95
2023-04-22T17:12:53.556Z,71.33
2023-04-22T17:15:20.907Z,71.04
2023-04-22T17:17:48.623Z,69.88
2023-04-22T17:20:16.070Z,69.37
2023-04-22T17:22:43.470Z,69.40
2023-04-22T17:25:12.328Z,69.53
2023-04-22T17:27:45.884Z,68.83
2023-04-22T17:30:15.048Z,68.58
2023-04-22T17:32:46.066Z,67.95
2023-04-22T17:35:15.233Z,68.37
2023-04-22T17:37:42.975Z,68.50
2023-04-22T17:40:11.329Z,68.91
2023-04-22T17:42:45.685Z,68.88
2023-04-22T17:45:16.534Z,69.48
2023-04-22T17:47:44.789Z,69.32
2023-04-22T17:50:15.432Z,69.89
2023-04-22T17:52:45.158Z,70.47
2023-04-22T17:55:20.677Z,70.74
2023-04-22T17:57:48.563Z,71.02
2023-04-22T18:00:28.421Z,70.96
2023-04-22T18:02:57.151Z,70.75
2023-04-22T18:05:32.669Z,70.18
2023-04-22T18:08:02.842Z,70.47
2023-04-22T18:10:30.926Z,70.32
2023-04-22T18:12:58.316Z,70.14
2023-04-22T18:15:26.117Z,69.55
2023-04-22T18:17:53.544Z,69.92
2023-04-22T18:20:22.394Z,69.63
2023-04-22T18:22:52.284Z,69.69
2023-04-22T18:25:19.837Z,69.14
2023-04-22T18:27:47.819Z,68.16
2023-04-22T18:30:15.720Z,68.05
2023-04-22T18:32:43.217Z,68.41
2023-04-22T18:35:10.673Z,68.91
2023-04-22T18:37:38.393Z,69.03
2023-04-22T18:40:06.508Z,69.00
2023-04-22T18:42:34.131Z,69.16
2023-04-22T18:45:04.725Z,69.28
2023-04-22T18:47:32.914Z,69.82
2023-04-22T18:50:00.623Z,70.88
2023-04-22T18:52:28.607Z,70.86
2023-04-22T18:54:55.997Z,71.05
2023-04-22T18:57:23.372Z,72.39
2023-04-22T18:59:51.282Z,73.27
2023-04-22T19:02:18.803Z,73.36
2023-04-22T19:04:46.354Z,73.65
2023-04-22T19:07:14.235Z,73.41
2023-04-22T19:09:41.753Z,73.84
2023-04-22T19:12:14.818Z,74.60
2023-04-22T19:14:42.911Z,73.44
2023-04-22T19:17:11.173Z,72.60
2023-04-22T19:19:38.856Z,71.87
2023-04-22T19:22:07.038Z,73.77
2023-04-22T19:24:35.917Z,74.63
2023-04-22T19:27:03.622Z,75.96
2023-04-22T19:29:31.638Z,75.65
2023-04-22T19:32:00.121Z,75.16
2023-04-22T19:34:28.858Z,74.87
2023-04-22T19:36:56.554Z,75.80
2023-04-22T19:39:24.211Z,76.83
2023-04-22T19:41:51.676Z,76.42
2023-04-22T19:44:19.566Z,76.80
2023-04-22T19:46:47.268Z,76.68
2023-04-22T19:49:15.118Z,77.30
2023-04-22T19:51:44.757Z,77.60
2023-04-22T19:54:13.699Z,77.45
2023-04-22T19:56:41.679Z,78.04
2023-04-22T19:59:09.652Z,77.54
2023-04-22T20:01:37.283Z,77.55
2023-04-22T20:04:05.547Z,77.82
2023-04-22T20:06:34.047Z,77.99
2023-04-22T20:09:02.506Z,77.60
2023-04-22T20:11:31.212Z,77.42
2023-04-22T20:13:59.443Z,78.91
2023-04-22T20:16:27.983Z,77.76
2023-04-22T20:18:55.842Z,77.36
2023-04-22T20:21:24.029Z,76.94
2023-04-22T20:23:56.018Z,77.73
2023-04-22T20:26:24.568Z,78.52
2023-04-22T20:28:53.998Z,78.27
2023-04-22T20:31:23.336Z,78.64
2023-04-22T20:33:51.591Z,79.26
2023-04-22T20:36:20.486Z,78.87
2023-04-22T20:38:49.891Z,78.05
2023-04-22T20:41:21.039Z,78.59
2023-04-22T20:43:48.535Z,78.96
2023-04-22T20:46:16.308Z,78.78
2023-04-22T20:48:44.231Z,78.33
2023-04-22T20:51:12.564Z,78.31
2023-04-22T20:53:40.327Z,78.81
2023-04-22T20:56:08.376Z,78.34
2023-04-22T20:58:35.824Z,78.34
2023-04-22T21:01:03.403Z,78.40
2023-04-22T21:03:33.368Z,78.41
2023-04-22T21:06:01.489Z,78.74
2023-04-22T21:08:29.190Z,79.61
2023-04-22T21:10:57.416Z,79.84
2023-04-22T21:13:25.132Z,80.05
2023-04-22T21:15:59.642Z,80.27
2023-04-22T21:18:29.160Z,80.02
2023-04-22T21:20:57.305Z,79.42
2023-04-22T21:23:25.337Z,79.32
2023-04-22T21:25:59.685Z,79.70
2023-04-22T21:28:28.108Z,79.98
2023-04-22T21:30:56.554Z,79.50
2023-04-22T21:33:25.427Z,79.60
2023-04-22T21:35:53.426Z,80.05
2023-04-22T21:38:21.463Z,80.05
2023-04-22T21:40:48.933Z,81.14
2023-04-22T21:43:16.407Z,80.73
2023-04-22T21:45:44.144Z,81.12
2023-04-22T21:48:11.467Z,81.98
2023-04-22T21:50:38.799Z,82.39
2023-04-22T21:53:06.838Z,80.20
2023-04-22T21:55:34.199Z,80.48
2023-04-22T21:58:01.601Z,81.63
2023-04-22T22:00:29.357Z,81.42
2023-04-22T22:02:57.052Z,81.33
2023-04-22T22:05:24.497Z,81.33
2023-04-22T22:07:53.116Z,82.07
2023-04-22T22:10:20.879Z,82.11
2023-04-22T22:12:49.064Z,82.69
2023-04-22T22:15:16.884Z,82.06
2023-04-22T22:17:45.117Z,82.25
2023-04-22T22:20:18.380Z,82.15
2023-04-22T22:22:46.658Z,82.48
2023-04-22T22:25:16.384Z,80.89
2023-04-22T22:27:49.466Z,79.92
2023-04-22T22:30:19.107Z,80.91
2023-04-22T22:32:46.452Z,81.34
2023-04-22T22:35:14.562Z,81.58
2023-04-22T22:37:42.257Z,82.99
2023-04-22T22:40:10.279Z,82.73
2023-04-22T22:42:37.662Z,83.35
2023-04-22T22:45:05.965Z,83.22
2023-04-22T22:47:33.382Z,83.95
2023-04-22T22:50:00.832Z,82.92
2023-04-22T22:52:28.668Z,82.38
2023-04-22T22:54:56.138Z,83.16
2023-04-22T22:57:23.603Z,82.48
2023-04-22T22:59:51.349Z,82.16
2023-04-22T23:02:18.919Z,82.39
2023-04-22T23:04:46.723Z,82.41
2023-04-22T23:07:16.667Z,82.39
2023-04-22T23:09:43.995Z,81.93
2023-04-22T23:12:11.648Z,81.71
2023-04-22T23:14:39.476Z,82.34
2023-04-22T23:17:07.018Z,82.89
2023-04-22T23:19:35.370Z,82.70
2023-04-22T23:22:05.075Z,82.53
2023-04-22T23:24:32.601Z,82.99
2023-04-22T23:27:00.301Z,82.75
2023-04-22T23:29:28.310Z,82.33
2023-04-22T23:31:56.778Z,82.62
2023-04-22T23:34:25.062Z,82.16
2023-04-22T23:36:53.565Z,82.24
2023-04-22T23:39:20.858Z,82.86
2023-04-22T23:41:48.150Z,82.58
2023-04-22T23:44:15.996Z,82.80
2023-04-22T23:46:43.444Z,82.18
2023-04-22T23:49:11.019Z,80.67
2023-04-22T23:51:38.935Z,81.22
2023-04-22T23:54:06.476Z,81.21
2023-04-22T23:56:34.054Z,82.01
2023-04-22T23:59:01.986Z,83.09
